createdAt,value
2023-04-18T00:02:39.858Z,6.80
2023-04-18T00:05:47.954Z,6.84
2023-04-18T00:08:52.537Z,6.86
2023-04-18T00:11:56.815Z,6.85
2023-04-18T00:15:03.012Z,6.85
2023-04-18T00:18:08.340Z,6.89
2023-04-18T00:21:13.856Z,6.92
2023-04-18T00:24:18.124Z,6.90
2023-04-18T00:27:22.360Z,6.92
2023-04-18T00:30:27.108Z,6.93
2023-04-18T00:33:31.524Z,6.95
2023-04-18T00:36:35.955Z,6.93
2023-04-18T00:39:39.996Z,6.94
2023-04-18T00:42:44.408Z,6.91
2023-04-18T00:45:48.767Z,6.87
2023-04-18T00:48:53.421Z,6.86
2023-04-18T00:51:57.667Z,6.85
2023-04-18T00:55:05.928Z,6.83
2023-04-18T00:58:10.613Z,6.86
2023-04-18T01:01:15.195Z,6.82
2023-04-18T01:04:19.644Z,6.75
2023-04-18T01:07:25.500Z,6.74
2023-04-18T01:10:31.110Z,6.70
2023-04-18T01:13:35.536Z,6.62
2023-04-18T01:16:40.017Z,6.59
2023-04-18T01:19:44.494Z,6.51
2023-04-18T01:22:48.519Z,6.33
2023-04-18T01:25:52.753Z,6.20
2023-04-18T01:28:57.025Z,6.12
2023-04-18T01:32:02.475Z,5.90
2023-04-18T01:35:07.463Z,5.90
2023-04-18T01:38:11.869Z,5.80
2023-04-18T01:41:16.246Z,5.73
2023-04-18T01:44:20.418Z,5.66
2023-04-18T01:47:24.573Z,5.63
2023-04-18T01:50:29.330Z,5.58
2023-04-18T01:53:33.546Z,5.58
2023-04-18T01:56:37.802Z,5.54
2023-04-18T01:59:42.076Z,5.48
2023-04-18T02:02:46.447Z,5.39
2023-04-18T02:05:51.699Z,5.30
2023-04-18T02:08:56.113Z,5.19
2023-04-18T02:12:02.705Z,5.16
2023-04-18T02:15:07.846Z,5.13
2023-04-18T02:18:12.612Z,5.18
2023-04-18T02:21:16.739Z,5.18
2023-04-18T02:24:20.882Z,5.17
2023-04-18T02:27:25.341Z,5.07
2023-04-18T02:44:52.564Z,4.84
2023-04-18T02:47:57.084Z,4.92
2023-04-18T02:51:07.765Z,4.89
2023-04-18T02:54:12.626Z,4.88
2023-04-18T02:57:17.478Z,4.87
2023-04-18T03:00:21.776Z,4.86
2023-04-18T03:03:26.144Z,4.86
2023-04-18T03:06:31.720Z,4.83
2023-04-18T03:09:35.971Z,4.82
2023-04-18T03:12:40.518Z,4.84
2023-04-18T03:15:44.931Z,4.86
2023-04-18T03:18:49.102Z,4.81
2023-04-18T03:21:53.448Z,4.77
2023-04-18T03:24:57.798Z,4.75
2023-04-18T03:28:02.129Z,4.72
2023-04-18T03:31:07.066Z,4.71
2023-04-18T03:34:11.617Z,4.69
2023-04-18T03:37:16.035Z,4.67
2023-04-18T03:40:20.648Z,4.68
2023-04-18T03:43:24.864Z,4.67
2023-04-18T03:46:29.735Z,4.64
2023-04-18T03:49:34.153Z,4.65
2023-04-18T03:52:38.395Z,4.63
2023-04-18T03:55:43.481Z,4.58
2023-04-18T03:58:48.126Z,4.49
2023-04-18T04:01:52.565Z,4.50
2023-04-18T04:04:57.846Z,4.50
2023-04-18T04:08:02.290Z,4.42
2023-04-18T04:11:06.429Z,4.50
2023-04-18T04:14:11.056Z,4.40
2023-04-18T04:17:15.974Z,4.34
2023-04-18T04:20:24.173Z,4.26
2023-04-18T04:23:28.860Z,4.28
2023-04-18T04:26:35.650Z,4.31
2023-04-18T04:29:41.209Z,4.27
2023-04-18T04:32:45.889Z,4.27
2023-04-18T04:35:50.784Z,4.19
2023-04-18T04:38:55.263Z,4.15
2023-04-18T04:42:04.391Z,4.24
2023-04-18T04:45:10.420Z,4.25
2023-04-18T04:48:14.793Z,4.32
2023-04-18T04:51:19.024Z,4.40
2023-04-18T04:54:23.397Z,4.46
2023-04-18T04:57:27.854Z,4.53
2023-04-18T05:00:32.073Z,4.59
2023-04-18T05:03:36.803Z,4.70
2023-04-18T05:06:41.379Z,4.83
2023-04-18T05:09:45.581Z,4.91
2023-04-18T05:12:49.830Z,4.98
2023-04-18T05:15:54.100Z,5.06
2023-04-18T05:18:58.555Z,5.18
2023-04-18T05:22:03.134Z,5.23
2023-04-18T05:25:08.317Z,5.30
2023-04-18T05:28:12.447Z,5.34
2023-04-18T05:31:16.904Z,5.45
2023-04-18T05:34:21.613Z,5.63
2023-04-18T05:37:26.129Z,5.75
2023-04-18T05:40:30.968Z,5.86
2023-04-18T05:43:35.648Z,5.98
2023-04-18T05:46:40.142Z,6.11
2023-04-18T05:49:44.885Z,6.20
2023-04-18T05:52:49.293Z,6.31
2023-04-18T05:55:55.102Z,6.38
2023-04-18T05:58:59.304Z,6.46
2023-04-18T06:02:03.721Z,6.50
2023-04-18T06:05:09.362Z,6.61
2023-04-18T06:08:14.242Z,6.68
2023-04-18T06:11:21.182Z,6.78
2023-04-18T06:14:26.116Z,6.84
2023-04-18T06:17:30.965Z,6.90
2023-04-18T06:20:35.343Z,7.00
2023-04-18T06:23:39.546Z,7.00
2023-04-18T06:26:44.244Z,7.03
2023-04-18T06:29:49.056Z,7.14
2023-04-18T06:32:53.735Z,7.19
2023-04-18T06:35:58.539Z,7.24
2023-04-18T06:39:02.714Z,7.32
2023-04-18T06:42:06.936Z,7.41
2023-04-18T06:45:12.143Z,7.42
2023-04-18T06:48:16.852Z,7.47
2023-04-18T06:51:21.044Z,7.53
2023-04-18T06:54:25.232Z,7.59
2023-04-18T06:57:29.821Z,7.78
2023-04-18T07:00:34.351Z,7.90
2023-04-18T07:03:38.994Z,7.98
2023-04-18T07:06:43.694Z,8.12
2023-04-18T07:09:49.120Z,8.18
2023-04-18T07:12:53.385Z,8.27
2023-04-18T07:15:57.709Z,8.42
2023-04-18T07:19:02.638Z,8.53
2023-04-18T07:22:07.050Z,8.65
2023-04-18T07:25:11.523Z,8.70
2023-04-18T07:28:16.589Z,8.80
2023-04-18T07:31:20.733Z,8.83
2023-04-18T07:34:29.586Z,8.88
2023-04-18T07:37:33.905Z,8.88
2023-04-18T07:40:38.717Z,8.81
2023-04-18T07:43:44.818Z,8.85
2023-04-18T07:46:49.689Z,8.88
2023-04-18T07:49:54.668Z,8.90
2023-04-18T07:52:59.011Z,8.97
2023-04-18T07:56:03.396Z,9.07
2023-04-18T07:59:07.909Z,9.20
2023-04-18T08:02:12.589Z,9.20
2023-04-18T08:05:19.819Z,9.27
2023-04-18T08:08:24.160Z,9.29
2023-04-18T08:11:28.254Z,9.29
2023-04-18T08:14:32.671Z,9.40
2023-04-18T08:17:38.870Z,9.39
2023-04-18T08:20:43.772Z,9.33
2023-04-18T08:23:48.190Z,9.44
2023-04-18T08:26:52.613Z,9.53
2023-04-18T08:29:58.095Z,9.61
2023-04-18T08:33:03.157Z,9.66
2023-04-18T08:36:07.964Z,9.78
2023-04-18T08:39:12.742Z,9.90
2023-04-18T08:42:21.469Z,9.96
2023-04-18T08:45:26.321Z,9.93
2023-04-18T08:48:31.002Z,9.90
2023-04-18T08:51:39.590Z,9.89
2023-04-18T08:54:46.647Z,9.99
2023-04-18T08:57:54.172Z,10.06
2023-04-18T09:00:58.900Z,10.13
2023-04-18T09:04:03.211Z,10.15
2023-04-18T09:07:12.157Z,10.29
2023-04-18T09:10:27.535Z,10.40
2023-04-18T09:13:47.425Z,10.39
2023-04-18T09:16:51.885Z,10.62
2023-04-18T09:19:56.707Z,10.75
2023-04-18T09:23:03.889Z,10.78
2023-04-18T09:26:08.152Z,10.83
2023-04-18T09:29:13.511Z,10.87
2023-04-18T09:32:25.139Z,10.97
2023-04-18T09:35:30.004Z,11.01
2023-04-18T09:38:41.409Z,11.03
2023-04-18T09:42:00.725Z,11.09
2023-04-18T09:45:08.278Z,11.20
2023-04-18T09:48:12.581Z,11.31
2023-04-18T09:51:18.044Z,11.29
2023-04-18T09:54:25.066Z,11.46
2023-04-18T09:57:31.363Z,11.59
2023-04-18T10:00:38.247Z,11.76
2023-04-18T10:03:48.486Z,11.92
2023-04-18T10:06:54.248Z,11.97
2023-04-18T10:09:58.455Z,12.11
2023-04-18T10:13:05.373Z,12.16
2023-04-18T10:16:11.050Z,12.18
2023-04-18T10:19:29.551Z,12.30
2023-04-18T10:22:35.475Z,12.43
2023-04-18T10:25:39.948Z,12.49
2023-04-18T10:28:56.504Z,12.35
2023-04-18T10:32:07.016Z,12.38
2023-04-18T10:35:13.569Z,12.48
2023-04-18T10:38:18.214Z,12.41
2023-04-18T10:41:27.602Z,12.23
2023-04-18T10:44:32.156Z,12.16
2023-04-18T10:47:36.684Z,12.11
2023-04-18T10:51:34.750Z,11.92
2023-04-18T10:54:51.970Z,11.92
2023-04-18T10:57:58.544Z,12.29
2023-04-18T11:01:04.654Z,12.55
2023-04-18T11:04:14.003Z,12.49
2023-04-18T11:07:19.385Z,12.36
2023-04-18T11:10:27.103Z,12.31
2023-04-18T11:13:31.908Z,12.16
2023-04-18T11:16:36.403Z,12.10
2023-04-18T11:19:41.174Z,12.30
2023-04-18T11:22:47.715Z,12.58
2023-04-18T11:25:56.381Z,12.72
2023-04-18T11:29:00.792Z,12.74
2023-04-18T11:32:09.480Z,12.73
2023-04-18T11:35:16.076Z,12.83
2023-04-18T11:38:21.699Z,12.82
2023-04-18T11:41:29.707Z,12.74
2023-04-18T11:44:36.335Z,12.64
2023-04-18T11:47:43.220Z,12.83
2023-04-18T11:50:47.836Z,12.79
2023-04-18T11:53:51.996Z,12.68
2023-04-18T11:56:57.549Z,12.62
2023-04-18T12:00:02.153Z,12.57
2023-04-18T12:03:15.668Z,12.52
2023-04-18T12:06:20.372Z,12.39
2023-04-18T12:09:25.228Z,12.44
2023-04-18T12:12:29.835Z,12.59
2023-04-18T12:15:43.490Z,12.70
2023-04-18T12:18:48.224Z,12.61
2023-04-18T12:22:01.990Z,12.72
2023-04-18T12:25:24.330Z,12.66
2023-04-18T12:28:31.211Z,12.78
2023-04-18T12:31:35.771Z,12.90
2023-04-18T12:34:40.320Z,12.98
2023-04-18T12:37:48.272Z,12.98
2023-04-18T12:40:52.725Z,12.95
2023-04-18T12:43:56.929Z,12.97
2023-04-18T12:47:01.228Z,13.13
2023-04-18T12:50:10.721Z,13.25
2023-04-18T12:53:15.871Z,13.45
2023-04-18T12:56:21.052Z,13.61
2023-04-18T12:59:25.448Z,13.64
2023-04-18T13:02:30.094Z,13.59
2023-04-18T13:05:35.714Z,13.55
2023-04-18T13:08:40.179Z,13.59
2023-04-18T13:11:44.202Z,13.43
2023-04-18T13:14:48.591Z,13.43
2023-04-18T13:17:52.918Z,13.46
2023-04-18T13:20:57.215Z,13.42
2023-04-18T13:24:02.971Z,13.36
2023-04-18T13:27:10.539Z,13.28
2023-04-18T13:30:15.496Z,13.28
2023-04-18T13:33:20.247Z,13.17
2023-04-18T13:36:24.546Z,13.11
2023-04-18T13:39:32.202Z,13.29
2023-04-18T13:42:38.608Z,13.65
2023-04-18T13:45:43.342Z,13.80
2023-04-18T13:48:47.783Z,13.90
2023-04-18T13:51:57.776Z,13.95
2023-04-18T13:55:03.706Z,14.19
2023-04-18T13:58:09.791Z,14.31
2023-04-18T14:01:16.288Z,14.30
2023-04-18T14:04:23.058Z,14.49
2023-04-18T14:07:27.716Z,14.49
2023-04-18T14:10:32.037Z,14.70
2023-04-18T14:13:36.286Z,14.99
2023-04-18T14:16:40.909Z,15.26
2023-04-18T14:19:45.211Z,15.71
2023-04-18T14:22:52.376Z,15.76
2023-04-18T14:25:57.701Z,16.39
2023-04-18T14:29:03.957Z,16.89
2023-04-18T14:32:08.499Z,16.72
2023-04-18T14:35:12.969Z,16.57
2023-04-18T14:38:17.554Z,16.34
2023-04-18T14:41:22.616Z,16.69
2023-04-18T14:44:26.801Z,16.02
2023-04-18T14:47:34.206Z,16.13
2023-04-18T14:50:38.723Z,16.91
2023-04-18T14:53:44.178Z,18.19
2023-04-18T14:56:48.314Z,18.93
2023-04-18T14:59:54.415Z,19.24
2023-04-18T15:02:59.180Z,18.21
2023-04-18T15:06:04.284Z,17.13
2023-04-18T15:09:08.704Z,16.59
2023-04-18T15:12:13.012Z,16.13
2023-04-18T15:15:18.888Z,15.61
2023-04-18T15:18:23.777Z,15.24
2023-04-18T15:21:28.428Z,14.87
2023-04-18T15:24:33.085Z,14.39
2023-04-18T15:27:36.993Z,14.29
2023-04-18T15:30:41.493Z,14.35
2023-04-18T15:33:46.820Z,14.26
2023-04-18T15:36:51.431Z,13.98
2023-04-18T15:39:57.032Z,14.02
2023-04-18T15:43:02.643Z,14.19
2023-04-18T15:46:07.171Z,14.26
2023-04-18T15:49:12.237Z,14.20
2023-04-18T15:52:42.656Z,14.08
2023-04-18T15:55:53.957Z,13.91
2023-04-18T15:59:02.920Z,13.77
2023-04-18T16:02:09.512Z,13.42
2023-04-18T16:05:15.386Z,13.23
2023-04-18T16:08:20.861Z,13.36
2023-04-18T16:11:28.976Z,13.43
2023-04-18T16:14:33.702Z,13.34
2023-04-18T16:17:38.339Z,13.32
2023-04-18T16:20:42.782Z,13.10
2023-04-18T16:23:47.282Z,13.02
2023-04-18T16:26:53.534Z,13.07
2023-04-18T16:29:57.979Z,13.25
2023-04-18T16:33:03.910Z,13.85
2023-04-18T16:36:09.812Z,14.28
2023-04-18T16:39:15.815Z,15.06
2023-04-18T16:42:19.939Z,14.91
2023-04-18T16:45:24.602Z,14.26
2023-04-18T16:48:29.721Z,14.28
2023-04-18T16:51:37.103Z,13.86
2023-04-18T16:54:41.449Z,13.54
2023-04-18T16:57:45.711Z,13.34
2023-04-18T17:00:49.964Z,13.19
2023-04-18T17:03:54.526Z,13.22
2023-04-18T17:07:00.612Z,13.36
2023-04-18T17:10:09.935Z,13.34
2023-04-18T17:13:15.021Z,13.35
2023-04-18T17:16:19.374Z,13.47
2023-04-18T17:19:23.985Z,13.35
2023-04-18T17:22:29.217Z,13.13
2023-04-18T17:25:33.489Z,12.79
2023-04-18T17:28:37.810Z,12.94
2023-04-18T17:31:42.129Z,13.48
2023-04-18T17:34:49.011Z,13.26
2023-04-18T17:37:53.641Z,13.43
2023-04-18T17:41:02.205Z,13.82
2023-04-18T17:44:10.442Z,13.75
2023-04-18T17:47:14.623Z,13.83
2023-04-18T17:50:19.283Z,13.29
2023-04-18T17:53:23.697Z,12.63
2023-04-18T17:56:30.368Z,12.14
2023-04-18T17:59:37.588Z,11.92
2023-04-18T18:02:44.548Z,11.73
2023-04-18T18:05:50.786Z,11.47
2023-04-18T18:08:55.940Z,11.25
2023-04-18T18:12:00.212Z,11.09
2023-04-18T18:15:08.422Z,10.87
2023-04-18T18:18:12.657Z,10.78
2023-04-18T18:21:17.899Z,10.72
2023-04-18T18:24:22.424Z,10.61
2023-04-18T18:27:26.744Z,10.51
2023-04-18T18:30:31.226Z,10.40
2023-04-18T18:33:42.622Z,10.23
2023-04-18T18:36:47.443Z,10.24
2023-04-18T18:39:56.276Z,10.15
2023-04-18T18:43:05.937Z,10.08
2023-04-18T18:46:20.540Z,10.00
2023-04-18T18:49:24.976Z,9.98
2023-04-18T18:52:30.849Z,9.90
2023-04-18T18:55:35.528Z,9.85
2023-04-18T18:58:40.431Z,9.76
2023-04-18T19:01:44.629Z,9.62
2023-04-18T19:04:49.001Z,9.53
2023-04-18T19:07:53.854Z,9.50
2023-04-18T19:10:58.141Z,9.46
2023-04-18T19:14:04.064Z,9.40
2023-04-18T19:17:08.577Z,9.31
2023-04-18T19:20:13.415Z,9.26
2023-04-18T19:23:19.263Z,9.17
2023-04-18T19:26:23.426Z,9.11
2023-04-18T19:29:27.643Z,9.02
2023-04-18T19:32:32.597Z,8.92
2023-04-18T19:35:37.996Z,8.74
2023-04-18T19:38:42.639Z,8.67
2023-04-18T19:41:46.970Z,8.53
2023-04-18T19:44:51.276Z,8.45
2023-04-18T19:47:56.140Z,8.32
2023-04-18T19:51:04.690Z,8.36
2023-04-18T19:54:09.269Z,8.26
2023-04-18T19:57:13.573Z,8.16
2023-04-18T20:00:19.864Z,8.08
2023-04-18T20:03:24.300Z,8.07
2023-04-18T20:06:32.325Z,8.08
2023-04-18T20:09:37.673Z,7.98
2023-04-18T20:12:41.926Z,7.93
2023-04-18T20:15:47.377Z,7.82
2023-04-18T20:18:54.187Z,7.77
2023-04-18T20:21:59.629Z,7.72
2023-04-18T20:25:04.101Z,7.66
2023-04-18T20:28:08.761Z,7.62
2023-04-18T20:31:13.274Z,7.62
2023-04-18T20:34:18.949Z,7.61
2023-04-18T20:37:24.533Z,7.47
2023-04-18T20:40:29.279Z,7.39
2023-04-18T20:43:37.265Z,7.37
2023-04-18T20:46:42.126Z,7.31
2023-04-18T20:49:46.994Z,7.26
2023-04-18T20:52:52.011Z,7.19
2023-04-18T20:55:56.644Z,7.10
2023-04-18T20:59:02.446Z,7.04
2023-04-18T21:02:08.458Z,7.02
2023-04-18T21:05:16.800Z,6.87
2023-04-18T21:08:22.070Z,6.83
2023-04-18T21:11:26.858Z,6.78
2023-04-18T21:14:32.578Z,6.79
2023-04-18T21:17:36.956Z,6.67
2023-04-18T21:20:42.027Z,6.66
2023-04-18T21:23:47.909Z,6.60
2023-04-18T21:26:53.108Z,6.59
2023-04-18T21:29:59.357Z,6.53
2023-04-18T21:33:05.896Z,6.55
2023-04-18T21:36:12.925Z,6.56
2023-04-18T21:39:17.852Z,6.58
2023-04-18T21:42:22.538Z,6.57
2023-04-18T21:45:26.953Z,6.50
2023-04-18T21:48:32.702Z,6.47
2023-04-18T21:51:37.110Z,6.40
2023-04-18T21:54:43.910Z,6.36
2023-04-18T21:57:48.483Z,6.35
2023-04-18T22:00:52.919Z,6.28
2023-04-18T22:03:58.263Z,6.22
2023-04-18T22:07:02.757Z,6.17
2023-04-18T22:10:08.964Z,6.15
2023-04-18T22:13:14.642Z,6.19
2023-04-18T22:16:22.269Z,6.18
2023-04-18T22:19:29.730Z,6.13
2023-04-18T22:22:36.002Z,6.12
2023-04-18T22:25:42.471Z,6.08
2023-04-18T22:28:48.422Z,6.08
2023-04-18T22:31:53.521Z,6.02
2023-04-18T22:34:59.121Z,6.02
2023-04-18T22:38:03.844Z,6.03
2023-04-18T22:41:08.885Z,6.00
2023-04-18T22:44:14.344Z,6.00
2023-04-18T22:47:19.441Z,5.97
2023-04-18T22:50:25.111Z,5.96
2023-04-18T22:53:32.223Z,5.96
2023-04-18T22:56:37.078Z,5.97
2023-04-18T22:59:45.291Z,5.93
2023-04-18T23:02:50.098Z,5.98
2023-04-18T23:05:56.465Z,6.04
2023-04-18T23:09:04.037Z,6.07
2023-04-18T23:12:10.107Z,6.02
2023-04-18T23:15:16.438Z,6.09
2023-04-18T23:18:23.153Z,6.04
2023-04-18T23:21:29.211Z,6.02
2023-04-18T23:24:34.493Z,6.02
2023-04-18T23:27:39.681Z,5.98
2023-04-18T23:30:46.069Z,6.02
2023-04-18T23:33:51.157Z,5.97
2023-04-18T23:36:56.124Z,5.97
2023-04-18T23:40:03.034Z,5.95
2023-04-18T23:43:10.200Z,5.88
2023-04-18T23:46:16.378Z,5.87
2023-04-18T23:49:22.150Z,5.81
2023-04-18T23:52:26.842Z,5.74
2023-04-18T23:55:31.826Z,5.74
2023-04-18T23:58:36.916Z,5.75
